sensor_id;sensor_type;location;lat;lon;timestamp;pressure;altitude;pressure_sealevel;temperature;humidity
20027;BME280;10174;42.688;23.344;2023-05-24T00:00:03;95132.22;;;11.81;91.72
20027;BME280;10174;42.688;23.344;2023-05-24T00:02:30;95122.84;;;11.73;92.38
20027;BME280;10174;42.688;23.344;2023-05-24T00:04:56;95129.84;;;11.74;93.07
20027;BME280;10174;42.688;23.344;2023-05-24T00:07:25;95126.91;;;11.66;92.78
20027;BME280;10174;42.688;23.344;2023-05-24T00:09:51;95104.03;;;11.63;93.08
20027;BME280;10174;42.688;23.344;2023-05-24T00:12:16;95106.22;;;11.56;92.92
20027;BME280;10174;42.688;23.344;2023-05-24T00:14:42;95135.50;;;11.68;93.17
20027;BME280;10174;42.688;23.344;2023-05-24T00:17:07;95018.44;;;10.95;93.12
20027;BME280;10174;42.688;23.344;2023-05-24T00:19:33;95081.00;;;11.36;93.25
20027;BME280;10174;42.688;23.344;2023-05-24T00:22:02;95127.69;;;11.71;93.17
20027;BME280;10174;42.688;23.344;2023-05-24T00:24:27;95126.91;;;11.66;93.38
20027;BME280;10174;42.688;23.344;2023-05-24T00:26:53;95116.16;;;11.55;93.14
20027;BME280;10174;42.688;23.344;2023-05-24T00:29:18;95123.44;;;11.55;93.27
20027;BME280;10174;42.688;23.344;2023-05-24T00:31:44;95079.13;;;11.32;92.96
20027;BME280;10174;42.688;23.344;2023-05-24T00:34:09;95123.72;;;11.53;93.06
20027;BME280;10174;42.688;23.344;2023-05-24T00:36:34;95110.53;;;11.52;93.42
20027;BME280;10174;42.688;23.344;2023-05-24T00:39:02;95003.16;;;10.80;93.59
20027;BME280;10174;42.688;23.344;2023-05-24T00:41:28;95107.59;;;11.43;93.87
20027;BME280;10174;42.688;23.344;2023-05-24T00:43:53;95116.19;;;11.50;93.64
20027;BME280;10174;42.688;23.344;2023-05-24T00:46:21;95056.56;;;11.17;93.21
20027;BME280;10174;42.688;23.344;2023-05-24T00:48:50;95121.00;;;11.48;93.50
20027;BME280;10174;42.688;23.344;2023-05-24T00:51:16;95121.56;;;11.45;93.50
20027;BME280;10174;42.688;23.344;2023-05-24T00:53:44;95116.47;;;11.44;93.55
20027;BME280;10174;42.688;23.344;2023-05-24T00:56:12;95118.34;;;11.43;93.80
20027;BME280;10174;42.688;23.344;2023-05-24T00:58:37;95093.38;;;11.22;93.98
20027;BME280;10174;42.688;23.344;2023-05-24T01:01:03;95123.19;;;11.46;93.33
20027;BME280;10174;42.688;23.344;2023-05-24T01:03:29;95112.97;;;11.43;93.50
20027;BME280;10174;42.688;23.344;2023-05-24T01:05:56;95124.81;;;11.37;93.56
20027;BME280;10174;42.688;23.344;2023-05-24T01:08:44;95116.22;;;11.35;93.88
20027;BME280;10174;42.688;23.344;2023-05-24T01:14:40;95114.06;;;11.27;93.44
20027;BME280;10174;42.688;23.344;2023-05-24T01:17:14;95065.75;;;10.85;93.92
20027;BME280;10174;42.688;23.344;2023-05-24T01:19:50;95128.63;;;11.26;93.90
20027;BME280;10174;42.688;23.344;2023-05-24T01:25:03;95145.00;;;11.19;93.57
20027;BME280;10174;42.688;23.344;2023-05-24T01:27:33;95147.16;;;11.17;93.38
20027;BME280;10174;42.688;23.344;2023-05-24T01:30:01;95147.44;;;11.05;93.74
20027;BME280;10174;42.688;23.344;2023-05-24T01:32:27;95150.66;;;10.92;94.39
20027;BME280;10174;42.688;23.344;2023-05-24T01:34:53;95131.84;;;10.76;95.24
20027;BME280;10174;42.688;23.344;2023-05-24T01:37:18;95148.25;;;10.85;95.42
20027;BME280;10174;42.688;23.344;2023-05-24T01:39:44;95099.63;;;10.61;95.13
20027;BME280;10174;42.688;23.344;2023-05-24T01:45:20;95135.34;;;10.82;95.10
20027;BME280;10174;42.688;23.344;2023-05-24T01:48:11;95133.72;;;10.81;95.10
20027;BME280;10174;42.688;23.344;2023-05-24T01:50:57;95142.34;;;10.78;95.07
20027;BME280;10174;42.688;23.344;2023-05-24T01:53:25;95127.28;;;10.82;94.99
20027;BME280;10174;42.688;23.344;2023-05-24T01:55:53;95134.00;;;10.74;95.75
20027;BME280;10174;42.688;23.344;2023-05-24T01:58:22;95117.63;;;10.71;95.66
20027;BME280;10174;42.688;23.344;2023-05-24T02:00:49;95131.84;;;10.76;95.50
20027;BME280;10174;42.688;23.344;2023-05-24T02:03:16;95134.28;;;10.78;95.33
20027;BME280;10174;42.688;23.344;2023-05-24T02:05:41;95107.41;;;10.57;95.46
20027;BME280;10174;42.688;23.344;2023-05-24T02:08:09;95105.53;;;10.58;95.64
20027;BME280;10174;42.688;23.344;2023-05-24T02:10:35;95133.47;;;10.82;95.16
20027;BME280;10174;42.688;23.344;2023-05-24T02:13:03;95126.47;;;10.76;95.21
20027;BME280;10174;42.688;23.344;2023-05-24T02:15:29;95116.56;;;10.77;95.19
20027;BME280;10174;42.688;23.344;2023-05-24T02:17:55;95111.72;;;10.63;95.56
20027;BME280;10174;42.688;23.344;2023-05-24T02:20:20;95129.72;;;10.78;96.20
20027;BME280;10174;42.688;23.344;2023-05-24T02:22:49;95129.19;;;10.81;95.15
20027;BME280;10174;42.688;23.344;2023-05-24T02:25:15;95079.75;;;10.57;94.71
20027;BME280;10174;42.688;23.344;2023-05-24T02:27:41;95117.34;;;10.67;95.46
20027;BME280;10174;42.688;23.344;2023-05-24T02:30:07;95042.63;;;10.12;95.86
20027;BME280;10174;42.688;23.344;2023-05-24T02:32:32;95120.03;;;10.62;96.20
20027;BME280;10174;42.688;23.344;2023-05-24T02:34:59;95122.72;;;10.57;96.58
20027;BME280;10174;42.688;23.344;2023-05-24T02:37:26;95121.63;;;10.52;96.74
20027;BME280;10174;42.688;23.344;2023-05-24T02:39:52;95124.34;;;10.52;96.77
20027;BME280;10174;42.688;23.344;2023-05-24T02:42:17;95131.31;;;10.59;96.52
20027;BME280;10174;42.688;23.344;2023-05-24T02:44:42;95102.28;;;10.50;96.41
20027;BME280;10174;42.688;23.344;2023-05-24T02:47:12;95122.72;;;10.51;96.64
20027;BME280;10174;42.688;23.344;2023-05-24T02:49:37;95117.88;;;10.43;97.08
20027;BME280;10174;42.688;23.344;2023-05-24T02:52:03;95111.41;;;10.39;96.91
20027;BME280;10174;42.688;23.344;2023-05-24T02:54:28;95119.75;;;10.48;96.72
20027;BME280;10174;42.688;23.344;2023-05-24T02:56:54;95021.34;;;9.75;97.12
20027;BME280;10174;42.688;23.344;2023-05-24T02:59:21;95040.97;;;9.91;97.47
20027;BME280;10174;42.688;23.344;2023-05-24T03:01:46;95128.28;;;10.29;97.63
20027;BME280;10174;42.688;23.344;2023-05-24T03:04:11;95116.19;;;10.22;97.69
20027;BME280;10174;42.688;23.344;2023-05-24T03:06:37;95003.28;;;9.39;98.18
20027;BME280;10174;42.688;23.344;2023-05-24T03:09:02;95127.16;;;10.15;98.92
20027;BME280;10174;42.688;23.344;2023-05-24T03:11:27;95140.84;;;10.13;99.19
20027;BME280;10174;42.688;23.344;2023-05-24T03:13:53;95152.94;;;10.21;98.52
20027;BME280;10174;42.688;23.344;2023-05-24T03:16:18;95151.06;;;10.16;98.89
20027;BME280;10174;42.688;23.344;2023-05-24T03:18:45;95152.16;;;10.21;99.08
20027;BME280;10174;42.688;23.344;2023-05-24T03:21:10;95144.38;;;10.24;99.39
20027;BME280;10174;42.688;23.344;2023-05-24T03:23:36;95148.69;;;10.25;99.32
20027;BME280;10174;42.688;23.344;2023-05-24T03:26:01;95151.09;;;10.27;98.93
20027;BME280;10174;42.688;23.344;2023-05-24T03:28:26;95153.78;;;10.32;98.79
20027;BME280;10174;42.688;23.344;2023-05-24T03:30:52;95155.44;;;10.38;98.48
20027;BME280;10174;42.688;23.344;2023-05-24T03:33:18;95144.44;;;10.40;98.39
20027;BME280;10174;42.688;23.344;2023-05-24T03:35:43;95149.53;;;10.36;98.52
20027;BME280;10174;42.688;23.344;2023-05-24T03:38:09;95148.75;;;10.46;98.29
20027;BME280;10174;42.688;23.344;2023-05-24T03:40:34;95140.94;;;10.34;98.34
20027;BME280;10174;42.688;23.344;2023-05-24T03:43:01;95160.03;;;10.48;98.36
20027;BME280;10174;42.688;23.344;2023-05-24T03:45:26;95152.78;;;10.48;98.38
20027;BME280;10174;42.688;23.344;2023-05-24T03:47:51;95149.03;;;10.49;98.51
20027;BME280;10174;42.688;23.344;2023-05-24T03:50:17;95134.81;;;10.54;98.18
20027;BME280;10174;42.688;23.344;2023-05-24T03:52:42;95156.56;;;10.68;98.00
20027;BME280;10174;42.688;23.344;2023-05-24T03:55:08;95104.44;;;10.43;98.17
20027;BME280;10174;42.688;23.344;2023-05-24T03:57:33;95140.19;;;10.69;98.12
20027;BME280;10174;42.688;23.344;2023-05-24T03:59:58;95154.44;;;10.91;97.88
20027;BME280;10174;42.688;23.344;2023-05-24T04:02:25;95163.59;;;11.00;98.23
20027;BME280;10174;42.688;23.344;2023-05-24T04:04:50;95143.41;;;10.97;98.24
20027;BME280;10174;42.688;23.344;2023-05-24T04:07:16;95120.31;;;10.86;97.74
20027;BME280;10174;42.688;23.344;2023-05-24T04:09:42;95157.94;;;11.17;97.76
20027;BME280;10174;42.688;23.344;2023-05-24T04:12:07;94994.56;;;10.16;97.32
20027;BME280;10174;42.688;23.344;2023-05-24T04:14:33;95168.41;;;11.34;97.03
20027;BME280;10174;42.688;23.344;2023-05-24T04:16:59;95159.75;;;11.42;96.38
20027;BME280;10174;42.688;23.344;2023-05-24T04:19:27;95160.28;;;11.49;95.16
20027;BME280;10174;42.688;23.344;2023-05-24T04:21:53;95086.16;;;11.07;92.77
20027;BME280;10174;42.688;23.344;2023-05-24T04:24:18;95155.44;;;11.67;92.02
20027;BME280;10174;42.688;23.344;2023-05-24T04:26:44;95160.22;;;11.80;91.08
20027;BME280;10174;42.688;23.344;2023-05-24T04:29:09;95154.81;;;11.85;90.40
20027;BME280;10174;42.688;23.344;2023-05-24T04:31:35;95121.53;;;11.66;89.78
20027;BME280;10174;42.688;23.344;2023-05-24T04:34:01;95168.25;;;12.01;89.80
20027;BME280;10174;42.688;23.344;2023-05-24T04:36:26;95169.84;;;12.07;88.74
20027;BME280;10174;42.688;23.344;2023-05-24T04:38:53;95145.66;;;12.02;89.07
20027;BME280;10174;42.688;23.344;2023-05-24T04:41:20;95180.53;;;12.27;88.46
20027;BME280;10174;42.688;23.344;2023-05-24T04:43:46;95150.88;;;12.27;87.68
20027;BME280;10174;42.688;23.344;2023-05-24T04:46:12;95176.66;;;12.49;87.13
20027;BME280;10174;42.688;23.344;2023-05-24T04:48:37;95177.91;;;12.62;86.80
20027;BME280;10174;42.688;23.344;2023-05-24T04:51:03;95184.66;;;12.64;85.98
20027;BME280;10174;42.688;23.344;2023-05-24T04:53:28;95064.88;;;12.02;85.96
20027;BME280;10174;42.688;23.344;2023-05-24T04:55:54;95183.16;;;12.88;84.73
20027;BME280;10174;42.688;23.344;2023-05-24T04:58:20;95192.03;;;12.88;84.26
20027;BME280;10174;42.688;23.344;2023-05-24T05:00:45;95070.19;;;12.12;83.86
20027;BME280;10174;42.688;23.344;2023-05-24T05:03:10;95158.56;;;12.55;84.48
20027;BME280;10174;42.688;23.344;2023-05-24T05:05:36;95175.91;;;12.83;85.02
20027;BME280;10174;42.688;23.344;2023-05-24T05:08:02;95184.94;;;13.03;84.41
20027;BME280;10174;42.688;23.344;2023-05-24T05:10:28;95192.41;;;13.11;84.00
20027;BME280;10174;42.688;23.344;2023-05-24T05:12:54;95191.22;;;13.22;83.81
20027;BME280;10174;42.688;23.344;2023-05-24T05:15:22;95193.91;;;13.27;83.55
20027;BME280;10174;42.688;23.344;2023-05-24T05:17:48;95193.38;;;13.25;83.03
20027;BME280;10174;42.688;23.344;2023-05-24T05:20:14;95197.06;;;13.40;83.51
20027;BME280;10174;42.688;23.344;2023-05-24T05:22:47;95165.75;;;13.39;82.95
20027;BME280;10174;42.688;23.344;2023-05-24T05:25:13;95192.56;;;13.59;82.09
20027;BME280;10174;42.688;23.344;2023-05-24T05:27:38;95191.31;;;13.76;81.15
20027;BME280;10174;42.688;23.344;2023-05-24T05:30:04;95194.41;;;13.88;79.54
20027;BME280;10174;42.688;23.344;2023-05-24T05:32:29;95084.75;;;13.14;79.66
20027;BME280;10174;42.688;23.344;2023-05-24T05:34:55;95170.28;;;13.72;79.48
20027;BME280;10174;42.688;23.344;2023-05-24T05:37:20;95200.19;;;14.05;78.93
20027;BME280;10174;42.688;23.344;2023-05-24T05:39:45;95197.41;;;14.11;78.51
20027;BME280;10174;42.688;23.344;2023-05-24T05:42:11;95205.41;;;14.21;78.69
20027;BME280;10174;42.688;23.344;2023-05-24T05:44:36;95196.16;;;14.27;77.04
20027;BME280;10174;42.688;23.344;2023-05-24T05:47:01;95188.53;;;14.29;76.37
20027;BME280;10174;42.688;23.344;2023-05-24T05:49:28;95199.09;;;14.50;76.50
20027;BME280;10174;42.688;23.344;2023-05-24T05:51:55;95187.91;;;14.62;75.84
20027;BME280;10174;42.688;23.344;2023-05-24T05:54:21;95184.31;;;15.04;73.98
20027;BME280;10174;42.688;23.344;2023-05-24T05:56:46;95195.19;;;15.98;70.81
20027;BME280;10174;42.688;23.344;2023-05-24T05:59:14;95186.38;;;16.84;66.25
20027;BME280;10174;42.688;23.344;2023-05-24T06:01:40;95180.13;;;17.97;61.79
20027;BME280;10174;42.688;23.344;2023-05-24T06:04:06;95192.91;;;17.96;61.87
20027;BME280;10174;42.688;23.344;2023-05-24T06:06:32;95202.19;;;17.95;62.49
20027;BME280;10174;42.688;23.344;2023-05-24T06:08:58;95095.47;;;17.41;62.77
20027;BME280;10174;42.688;23.344;2023-05-24T06:11:24;95149.00;;;18.87;58.36
20027;BME280;10174;42.688;23.344;2023-05-24T06:13:51;95197.50;;;19.37;57.66
20027;BME280;10174;42.688;23.344;2023-05-24T06:16:16;95195.31;;;20.04;55.63
20027;BME280;10174;42.688;23.344;2023-05-24T06:18:42;95191.44;;;19.32;56.57
20027;BME280;10174;42.688;23.344;2023-05-24T06:21:07;95203.84;;;18.54;59.56
20027;BME280;10174;42.688;23.344;2023-05-24T06:23:37;95210.00;;;17.97;60.67
20027;BME280;10174;42.688;23.344;2023-05-24T06:26:03;95212.25;;;17.72;61.45
20027;BME280;10174;42.688;23.344;2023-05-24T06:28:28;95167.72;;;17.28;62.32
20027;BME280;10174;42.688;23.344;2023-05-24T06:30:54;95216.34;;;18.15;59.04
20027;BME280;10174;42.688;23.344;2023-05-24T06:33:19;95185.31;;;18.16;59.25
20027;BME280;10174;42.688;23.344;2023-05-24T06:35:45;95195.16;;;17.72;60.97
20027;BME280;10174;42.688;23.344;2023-05-24T06:38:10;95193.16;;;17.86;61.40
20027;BME280;10174;42.688;23.344;2023-05-24T06:40:36;95203.00;;;17.96;60.73
20027;BME280;10174;42.688;23.344;2023-05-24T06:43:02;95194.75;;;17.87;60.79
20027;BME280;10174;42.688;23.344;2023-05-24T06:45:28;95202.34;;;17.45;61.20
20027;BME280;10174;42.688;23.344;2023-05-24T06:47:53;95196.97;;;17.54;62.31
20027;BME280;10174;42.688;23.344;2023-05-24T06:50:18;95194.31;;;17.62;62.14
20027;BME280;10174;42.688;23.344;2023-05-24T06:52:44;95133.38;;;17.23;63.07
20027;BME280;10174;42.688;23.344;2023-05-24T06:55:10;95199.59;;;17.68;61.80
20027;BME280;10174;42.688;23.344;2023-05-24T06:57:35;95196.50;;;17.83;61.99
20027;BME280;10174;42.688;23.344;2023-05-24T07:00:01;95154.28;;;17.77;62.08
20027;BME280;10174;42.688;23.344;2023-05-24T07:02:26;95161.00;;;18.11;61.35
20027;BME280;10174;42.688;23.344;2023-05-24T07:04:53;95182.53;;;18.39;60.56
20027;BME280;10174;42.688;23.344;2023-05-24T07:07:19;95189.34;;;18.85;59.75
20027;BME280;10174;42.688;23.344;2023-05-24T07:09:44;95191.91;;;18.90;59.65
20027;BME280;10174;42.688;23.344;2023-05-24T07:12:11;95188.19;;;18.77;60.29
20027;BME280;10174;42.688;23.344;2023-05-24T07:14:37;95194.78;;;19.02;59.59
20027;BME280;10174;42.688;23.344;2023-05-24T07:17:02;95167.72;;;18.89;59.67
20027;BME280;10174;42.688;23.344;2023-05-24T07:19:28;95189.69;;;19.10;58.83
20027;BME280;10174;42.688;23.344;2023-05-24T07:21:55;95196.44;;;19.21;57.84
20027;BME280;10174;42.688;23.344;2023-05-24T07:24:20;95195.13;;;19.10;58.75
20027;BME280;10174;42.688;23.344;2023-05-24T07:26:47;95180.34;;;18.76;58.40
20027;BME280;10174;42.688;23.344;2023-05-24T07:29:12;95190.63;;;18.96;58.85
20027;BME280;10174;42.688;23.344;2023-05-24T07:31:38;95208.41;;;19.11;58.94
20027;BME280;10174;42.688;23.344;2023-05-24T07:34:03;95108.97;;;18.52;57.89
20027;BME280;10174;42.688;23.344;2023-05-24T07:36:29;95186.97;;;19.18;57.62
20027;BME280;10174;42.688;23.344;2023-05-24T07:38:56;95211.44;;;19.45;57.66
20027;BME280;10174;42.688;23.344;2023-05-24T07:41:25;95201.50;;;19.57;56.49
20027;BME280;10174;42.688;23.344;2023-05-24T07:43:51;95205.19;;;19.79;55.27
20027;BME280;10174;42.688;23.344;2023-05-24T07:46:16;95197.00;;;19.79;55.13
20027;BME280;10174;42.688;23.344;2023-05-24T07:48:42;95199.53;;;19.93;55.41
20027;BME280;10174;42.688;23.344;2023-05-24T07:51:07;95190.19;;;20.41;55.52
20027;BME280;10174;42.688;23.344;2023-05-24T07:53:32;95196.13;;;20.43;53.47
20027;BME280;10174;42.688;23.344;2023-05-24T07:55:58;95135.47;;;20.08;52.57
20027;BME280;10174;42.688;23.344;2023-05-24T07:58:24;95158.59;;;20.40;53.83
20027;BME280;10174;42.688;23.344;2023-05-24T08:00:50;95186.22;;;20.69;53.34
20027;BME280;10174;42.688;23.344;2023-05-24T08:03:16;95093.13;;;20.40;53.76
20027;BME280;10174;42.688;23.344;2023-05-24T08:05:42;95182.13;;;21.05;50.92
20027;BME280;10174;42.688;23.344;2023-05-24T08:08:07;95091.53;;;20.60;50.84
20027;BME280;10174;42.688;23.344;2023-05-24T08:10:33;95177.56;;;21.30;50.47
20027;BME280;10174;42.688;23.344;2023-05-24T08:12:59;95104.19;;;21.07;50.49
20027;BME280;10174;42.688;23.344;2023-05-24T08:15:24;95166.09;;;21.58;48.47
20027;BME280;10174;42.688;23.344;2023-05-24T08:17:50;95198.66;;;21.63;47.71
20027;BME280;10174;42.688;23.344;2023-05-24T08:20:15;95107.84;;;21.11;47.90
20027;BME280;10174;42.688;23.344;2023-05-24T08:22:42;95160.22;;;21.80;46.98
20027;BME280;10174;42.688;23.344;2023-05-24T08:25:09;95155.69;;;21.97;46.79
20027;BME280;10174;42.688;23.344;2023-05-24T08:27:34;95176.38;;;22.31;44.00
20027;BME280;10174;42.688;23.344;2023-05-24T08:30:01;95169.19;;;22.64;44.02
20027;BME280;10174;42.688;23.344;2023-05-24T08:32:28;95153.59;;;23.05;41.64
20027;BME280;10174;42.688;23.344;2023-05-24T08:34:53;95164.78;;;23.69;39.42
20027;BME280;10174;42.688;23.344;2023-05-24T08:37:20;95155.97;;;24.55;38.15
20027;BME280;10174;42.688;23.344;2023-05-24T08:39:47;95175.44;;;24.82;34.97
20027;BME280;10174;42.688;23.344;2023-05-24T08:42:13;95053.78;;;25.63;33.14
20027;BME280;10174;42.688;23.344;2023-05-24T08:44:57;95169.25;;;27.63;31.30
20027;BME280;10174;42.688;23.344;2023-05-24T08:47:24;95137.47;;;29.28;29.62
20027;BME280;10174;42.688;23.344;2023-05-24T08:49:51;95161.91;;;30.58;27.34
20027;BME280;10174;42.688;23.344;2023-05-24T08:52:18;95147.06;;;33.53;24.42
20027;BME280;10174;42.688;23.344;2023-05-24T08:54:45;95149.88;;;34.39;23.05
20027;BME280;10174;42.688;23.344;2023-05-24T08:57:12;95164.28;;;33.03;25.32
20027;BME280;10174;42.688;23.344;2023-05-24T08:59:39;95152.03;;;32.97;24.96
20027;BME280;10174;42.688;23.344;2023-05-24T09:02:08;95148.94;;;32.42;22.99
20027;BME280;10174;42.688;23.344;2023-05-24T09:04:38;95171.44;;;32.59;22.99
20027;BME280;10174;42.688;23.344;2023-05-24T09:07:06;95158.00;;;31.87;23.87
20027;BME280;10174;42.688;23.344;2023-05-24T09:09:33;95068.91;;;30.20;26.44
20027;BME280;10174;42.688;23.344;2023-05-24T09:12:01;95163.50;;;30.62;25.60
20027;BME280;10174;42.688;23.344;2023-05-24T09:14:28;95164.22;;;32.05;24.40
20027;BME280;10174;42.688;23.344;2023-05-24T09:16:54;95156.91;;;31.73;24.68
20027;BME280;10174;42.688;23.344;2023-05-24T09:19:19;95139.34;;;32.96;23.61
20027;BME280;10174;42.688;23.344;2023-05-24T09:21:46;95154.91;;;34.20;21.81
20027;BME280;10174;42.688;23.344;2023-05-24T09:24:14;95131.13;;;35.10;21.63
20027;BME280;10174;42.688;23.344;2023-05-24T09:26:40;95155.88;;;35.72;20.72
20027;BME280;10174;42.688;23.344;2023-05-24T09:29:06;95145.81;;;35.75;20.51
20027;BME280;10174;42.688;23.344;2023-05-24T09:31:33;95144.47;;;34.79;21.53
20027;BME280;10174;42.688;23.344;2023-05-24T09:33:59;95134.09;;;34.79;21.35
20027;BME280;10174;42.688;23.344;2023-05-24T09:36:26;95140.94;;;34.51;21.45
20027;BME280;10174;42.688;23.344;2023-05-24T09:39:08;95130.47;;;32.63;22.15
20027;BME280;10174;42.688;23.344;2023-05-24T09:41:37;95145.16;;;33.47;22.44
20027;BME280;10174;42.688;23.344;2023-05-24T09:44:04;95137.84;;;34.18;22.21
20027;BME280;10174;42.688;23.344;2023-05-24T09:46:36;95139.75;;;34.76;21.16
20027;BME280;10174;42.688;23.344;2023-05-24T09:49:02;95119.47;;;34.48;21.35
20027;BME280;10174;42.688;23.344;2023-05-24T09:51:28;95118.66;;;34.24;20.95
20027;BME280;10174;42.688;23.344;2023-05-24T09:54:01;95142.28;;;32.78;22.79
20027;BME280;10174;42.688;23.344;2023-05-24T09:56:28;95085.25;;;33.66;22.28
20027;BME280;10174;42.688;23.344;2023-05-24T09:58:54;95109.47;;;34.74;20.86
20027;BME280;10174;42.688;23.344;2023-05-24T10:01:22;95123.59;;;35.51;19.65
20027;BME280;10174;42.688;23.344;2023-05-24T10:03:56;95142.75;;;35.69;20.03
20027;BME280;10174;42.688;23.344;2023-05-24T10:06:23;95125.59;;;35.51;19.46
20027;BME280;10174;42.688;23.344;2023-05-24T10:08:50;95102.94;;;36.38;18.63
20027;BME280;10174;42.688;23.344;2023-05-24T10:11:18;95106.88;;;37.03;19.19
20027;BME280;10174;42.688;23.344;2023-05-24T10:13:46;95099.03;;;36.98;19.22
20027;BME280;10174;42.688;23.344;2023-05-24T10:16:12;95108.31;;;37.66;18.32
20027;BME280;10174;42.688;23.344;2023-05-24T10:18:37;95127.72;;;36.36;19.06
20027;BME280;10174;42.688;23.344;2023-05-24T10:21:07;95101.34;;;35.84;19.55
20027;BME280;10174;42.688;23.344;2023-05-24T10:23:37;95121.41;;;34.28;20.33
20027;BME280;10174;42.688;23.344;2023-05-24T10:26:09;95117.16;;;33.88;20.61
20027;BME280;10174;42.688;23.344;2023-05-24T10:28:46;95105.41;;;33.77;21.28
20027;BME280;10174;42.688;23.344;2023-05-24T10:31:21;95101.88;;;33.08;21.52
20027;BME280;10174;42.688;23.344;2023-05-24T10:33:49;95094.34;;;34.95;20.25
20027;BME280;10174;42.688;23.344;2023-05-24T10:36:16;94807.19;;;32.04;21.23
20027;BME280;10174;42.688;23.344;2023-05-24T10:38:45;95108.38;;;32.48;22.03
20027;BME280;10174;42.688;23.344;2023-05-24T10:41:11;95112.41;;;32.40;22.16
20027;BME280;10174;42.688;23.344;2023-05-24T10:43:37;95114.75;;;33.29;22.29
20027;BME280;10174;42.688;23.344;2023-05-24T10:46:04;95092.97;;;35.47;20.19
20027;BME280;10174;42.688;23.344;2023-05-24T10:48:37;95096.06;;;33.91;20.41
20027;BME280;10174;42.688;23.344;2023-05-24T10:51:29;95085.91;;;33.46;21.23
20027;BME280;10174;42.688;23.344;2023-05-24T10:54:09;95063.66;;;34.95;20.44
20027;BME280;10174;42.688;23.344;2023-05-24T10:56:39;95087.53;;;35.40;20.68
20027;BME280;10174;42.688;23.344;2023-05-24T10:59:05;95079.91;;;34.33;20.28
20027;BME280;10174;42.688;23.344;2023-05-24T11:01:32;95085.13;;;32.28;22.25
20027;BME280;10174;42.688;23.344;2023-05-24T11:04:15;95084.84;;;32.15;21.80
20027;BME280;10174;42.688;23.344;2023-05-24T11:09:17;95023.81;;;33.80;21.54
20027;BME280;10174;42.688;23.344;2023-05-24T11:11:48;95075.97;;;35.58;20.57
20027;BME280;10174;42.688;23.344;2023-05-24T11:14:18;95067.09;;;34.36;21.11
20027;BME280;10174;42.688;23.344;2023-05-24T11:16:45;94999.66;;;33.70;21.14
20027;BME280;10174;42.688;23.344;2023-05-24T11:20:03;95072.28;;;35.45;20.25
20027;BME280;10174;42.688;23.344;2023-05-24T11:22:12;95084.44;;;35.35;20.44
20027;BME280;10174;42.688;23.344;2023-05-24T11:24:39;95073.06;;;34.38;21.13
20027;BME280;10174;42.688;23.344;2023-05-24T11:27:05;95076.56;;;32.95;22.50
20027;BME280;10174;42.688;23.344;2023-05-24T11:29:31;95079.88;;;31.03;24.32
20027;BME280;10174;42.688;23.344;2023-05-24T11:31:58;95008.97;;;29.01;25.84
20027;BME280;10174;42.688;23.344;2023-05-24T11:34:29;95040.50;;;28.85;27.34
20027;BME280;10174;42.688;23.344;2023-05-24T11:36:54;95065.22;;;28.60;26.89
20027;BME280;10174;42.688;23.344;2023-05-24T11:39:20;94994.66;;;27.21;27.64
20027;BME280;10174;42.688;23.344;2023-05-24T11:41:47;95037.41;;;27.38;28.29
20027;BME280;10174;42.688;23.344;2023-05-24T11:44:16;94998.09;;;27.48;28.62
20027;BME280;10174;42.688;23.344;2023-05-24T11:46:43;95073.31;;;27.86;28.28
20027;BME280;10174;42.688;23.344;2023-05-24T11:49:15;95063.72;;;27.69;27.82
20027;BME280;10174;42.688;23.344;2023-05-24T11:51:41;95041.81;;;27.87;29.05
20027;BME280;10174;42.688;23.344;2023-05-24T11:54:07;95041.38;;;28.34;27.83
20027;BME280;10174;42.688;23.344;2023-05-24T11:56:33;95045.34;;;28.40;27.41
20027;BME280;10174;42.688;23.344;2023-05-24T11:59:15;95054.84;;;28.39;26.03
20027;BME280;10174;42.688;23.344;2023-05-24T12:01:41;95036.84;;;28.04;26.63
20027;BME280;10174;42.688;23.344;2023-05-24T12:04:07;95044.69;;;28.02;27.01
20027;BME280;10174;42.688;23.344;2023-05-24T12:06:38;95021.94;;;27.71;26.34
20027;BME280;10174;42.688;23.344;2023-05-24T12:09:04;95047.66;;;26.73;27.63
20027;BME280;10174;42.688;23.344;2023-05-24T12:11:42;95038.22;;;26.74;27.99
20027;BME280;10174;42.688;23.344;2023-05-24T12:14:24;95042.53;;;26.75;28.92
20027;BME280;10174;42.688;23.344;2023-05-24T12:16:53;95000.31;;;26.98;27.86
20027;BME280;10174;42.688;23.344;2023-05-24T12:19:20;95026.41;;;27.42;29.25
20027;BME280;10174;42.688;23.344;2023-05-24T12:21:48;95016.53;;;27.82;29.66
20027;BME280;10174;42.688;23.344;2023-05-24T12:24:16;95022.03;;;27.82;29.83
20027;BME280;10174;42.688;23.344;2023-05-24T12:26:44;95015.66;;;27.74;30.13
20027;BME280;10174;42.688;23.344;2023-05-24T12:29:10;95019.78;;;27.95;29.35
20027;BME280;10174;42.688;23.344;2023-05-24T12:31:39;94992.69;;;27.59;29.65
20027;BME280;10174;42.688;23.344;2023-05-24T12:34:09;94983.06;;;27.39;29.41
20027;BME280;10174;42.688;23.344;2023-05-24T12:36:35;95002.72;;;27.33;29.39
20027;BME280;10174;42.688;23.344;2023-05-24T12:39:15;95009.13;;;27.11;30.37
20027;BME280;10174;42.688;23.344;2023-05-24T12:41:41;95012.41;;;27.24;30.36
20027;BME280;10174;42.688;23.344;2023-05-24T12:44:09;94995.69;;;27.43;29.56
20027;BME280;10174;42.688;23.344;2023-05-24T12:46:34;95003.50;;;27.34;29.96
20027;BME280;10174;42.688;23.344;2023-05-24T12:49:00;94932.88;;;26.84;30.52
20027;BME280;10174;42.688;23.344;2023-05-24T12:51:29;94962.94;;;27.00;30.27
20027;BME280;10174;42.688;23.344;2023-05-24T12:53:54;94985.25;;;27.26;31.26
20027;BME280;10174;42.688;23.344;2023-05-24T12:56:20;94999.00;;;27.60;29.99
20027;BME280;10174;42.688;23.344;2023-05-24T12:58:47;95005.28;;;27.57;30.19
20027;BME280;10174;42.688;23.344;2023-05-24T13:01:12;94998.69;;;27.31;29.66